PWSweather.com
Personal Weather Stations
Station Observations
IBRABANT12
Leuven, BlandenBE 3052

LeuvenBlandenBE 3052

Lat: 50.8252218, Lon: 4.709682799999996

Elevation: 193

Station Type: Davis Vantage Vue

http://www.weerstationblanden.be

Latest ConditionsUpdated 2:00:17 PM GMT+01:01 Saturday, Apr 18, 2015
Currently Today's Max Today's Min Today's Average
Temperature 56.1°F13.4°C 56.1°F13.4°C 35.9°F2.2°C 45.1°F7.3°C
Dew Point 33.3°F0.7°C 39.6°F4.2°C 31.5°F-0.3°C 35.1°F1.7°C
Winds 7.4 mph ENE11.9 kmh ENE 13.7 mph ESE22.0 kmh ESE - 4.7 mph 7.6 kmh
Wind Gusts 14.0 mph22.5 kmh 21.0 mph33.8 kmh - -
Humidity 42% 89% 40% 70%
Pressure 30.25 in1024.4 mb 30.28 in1025.4 mb 30.18 in1022.0 mb -
Hour Temp Dew Point Humidity Winds Wind Gusts Pressure Precip Precip Rate Daily Precip Total
02:00 PM 56.1°F13.4°C 33.3°F0.7°C 42% 7.4 mph ENE11.9 kmh ENE 14.0 mph22.5 kmh 30.25 in1024.4 mb - 0.00 in0.0 mm 0.00 in0.0 mm
01:50 PM 55.7°F13.2°C 31.7°F-0.2°C 40% 13.7 mph ESE22.0 kmh ESE 21.0 mph33.8 kmh 30.25 in1024.4 mb - 0.00 in0.0 mm 0.00 in0.0 mm
01:40 PM 55.7°F13.2°C 31.7°F-0.2°C 40% 11.6 mph E18.7 kmh E 13.0 mph20.9 kmh 30.26 in1024.7 mb - 0.00 in0.0 mm 0.00 in0.0 mm
01:30 PM 55.8°F13.2°C 31.8°F-0.1°C 40% 11.8 mph ENE19.0 kmh ENE 14.0 mph22.5 kmh 30.26 in1024.7 mb - 0.00 in0.0 mm 0.00 in0.0 mm
01:20 PM 55.2°F12.9°C 31.9°F-0.1°C 41% 9.5 mph ENE15.3 kmh ENE 17.0 mph27.4 kmh 30.26 in1024.7 mb - 0.00 in0.0 mm 0.00 in0.0 mm
01:10 PM 55.4°F13.0°C 32.1°F0.1°C 41% 10.7 mph E17.2 kmh E 13.0 mph20.9 kmh 30.26 in1024.7 mb - 0.00 in0.0 mm 0.00 in0.0 mm
01:00 PM 55.7°F13.2°C 32.3°F0.2°C 41% 10.6 mph ESE17.1 kmh ESE 17.0 mph27.4 kmh 30.26 in1024.7 mb - 0.00 in0.0 mm 0.00 in0.0 mm
12:50 PM 55.2°F12.9°C 32.5°F0.3°C 42% 8.9 mph NE14.3 kmh NE 15.0 mph24.1 kmh 30.26 in1024.7 mb - 0.00 in0.0 mm 0.00 in0.0 mm
12:40 PM 54.8°F12.7°C 31.5°F-0.3°C 41% 13.0 mph E20.9 kmh E 17.0 mph27.4 kmh 30.27 in1025.1 mb - 0.00 in0.0 mm 0.00 in0.0 mm
12:30 PM 54.7°F12.6°C 32.7°F0.4°C 43% 12.3 mph ENE19.8 kmh ENE 16.0 mph25.7 kmh 30.27 in1025.1 mb - 0.00 in0.0 mm 0.00 in0.0 mm
12:20 PM 54.5°F12.5°C 31.9°F-0.1°C 42% 11.2 mph E18.0 kmh E 19.0 mph30.6 kmh 30.27 in1025.1 mb - 0.00 in0.0 mm 0.00 in0.0 mm
12:10 PM 54.5°F12.5°C 33.1°F0.6°C 44% 8.5 mph E13.7 kmh E 11.0 mph17.7 kmh 30.27 in1025.1 mb - 0.00 in0.0 mm 0.00 in0.0 mm
12:00 PM 53.7°F12.1°C 32.3°F0.2°C 44% 5.8 mph NE9.3 kmh NE 8.0 mph12.9 kmh 30.27 in1025.1 mb - 0.00 in0.0 mm 0.00 in0.0 mm
11:50 AM 53.9°F12.2°C 33.0°F0.6°C 45% 9.3 mph E15.0 kmh E 14.0 mph22.5 kmh 30.27 in1025.1 mb - 0.00 in0.0 mm 0.00 in0.0 mm
11:40 AM 53.3°F11.8°C 32.5°F0.3°C 45% 8.9 mph E14.3 kmh E 12.0 mph19.3 kmh 30.28 in1025.4 mb - 0.00 in0.0 mm 0.00 in0.0 mm
11:30 AM 53.7°F12.1°C 32.3°F0.2°C 44% 11.3 mph ENE18.2 kmh ENE 13.0 mph20.9 kmh 30.28 in1025.4 mb - 0.00 in0.0 mm 0.00 in0.0 mm
11:20 AM 53.0°F11.7°C 34.8°F1.6°C 50% 9.9 mph E15.9 kmh E 12.0 mph19.3 kmh 30.28 in1025.4 mb - 0.00 in0.0 mm 0.00 in0.0 mm
11:10 AM 53.0°F11.7°C 34.8°F1.6°C 50% 10.1 mph E16.3 kmh E 14.0 mph22.5 kmh 30.28 in1025.4 mb - 0.00 in0.0 mm 0.00 in0.0 mm
11:00 AM 52.0°F11.1°C 34.9°F1.6°C 52% 11.5 mph E18.5 kmh E 14.0 mph22.5 kmh 30.28 in1025.4 mb - 0.00 in0.0 mm 0.00 in0.0 mm
10:50 AM 52.4°F11.3°C 35.7°F2.1°C 53% 11.7 mph E18.8 kmh E 17.0 mph27.4 kmh 30.28 in1025.4 mb - 0.00 in0.0 mm 0.00 in0.0 mm
10:40 AM 51.6°F10.9°C 35.9°F2.2°C 55% 8.0 mph E12.9 kmh E 13.0 mph20.9 kmh 30.28 in1025.4 mb - 0.00 in0.0 mm 0.00 in0.0 mm
10:30 AM 51.4°F10.8°C 35.7°F2.1°C 55% 10.7 mph E17.2 kmh E 18.0 mph29.0 kmh 30.28 in1025.4 mb - 0.00 in0.0 mm 0.00 in0.0 mm
10:20 AM 50.5°F10.3°C 37.6°F3.1°C 61% 5.0 mph ENE8.0 kmh ENE 4.0 mph6.4 kmh 30.28 in1025.4 mb - 0.00 in0.0 mm 0.00 in0.0 mm
10:10 AM 50.1°F10.1°C 36.8°F2.7°C 60% 10.5 mph E16.9 kmh E 15.0 mph24.1 kmh 30.28 in1025.4 mb - 0.00 in0.0 mm 0.00 in0.0 mm
10:00 AM 49.5°F9.7°C 38.2°F3.4°C 65% 8.6 mph NE13.8 kmh NE 12.0 mph19.3 kmh 30.27 in1025.1 mb - 0.00 in0.0 mm 0.00 in0.0 mm
09:50 AM 49.3°F9.6°C 39.6°F4.2°C 69% 7.4 mph E11.9 kmh E 12.0 mph19.3 kmh 30.28 in1025.4 mb - 0.00 in0.0 mm 0.00 in0.0 mm
09:40 AM 48.8°F9.3°C 39.4°F4.1°C 70% 5.0 mph E8.0 kmh E 6.0 mph9.7 kmh 30.28 in1025.4 mb - 0.00 in0.0 mm 0.00 in0.0 mm
09:30 AM 48.3°F9.1°C 39.3°F4.1°C 71% 3.7 mph E6.0 kmh E 5.0 mph8.0 kmh 30.27 in1025.1 mb - 0.00 in0.0 mm 0.00 in0.0 mm
09:20 AM 47.7°F8.7°C 38.8°F3.8°C 71% 5.8 mph E9.3 kmh E 9.0 mph14.5 kmh 30.27 in1025.1 mb - 0.00 in0.0 mm 0.00 in0.0 mm
09:10 AM 47.6°F8.7°C 38.7°F3.7°C 71% 5.0 mph NE8.0 kmh NE 8.0 mph12.9 kmh 30.28 in1025.4 mb - 0.00 in0.0 mm 0.00 in0.0 mm
09:00 AM 47.5°F8.6°C 39.3°F4.1°C 73% 3.2 mph E5.1 kmh E 4.0 mph6.4 kmh 30.28 in1025.4 mb - 0.00 in0.0 mm 0.00 in0.0 mm
08:50 AM 47.0°F8.3°C 39.5°F4.2°C 75% 4.4 mph ENE7.1 kmh ENE 11.0 mph17.7 kmh 30.28 in1025.4 mb - 0.00 in0.0 mm 0.00 in0.0 mm
08:40 AM 45.6°F7.6°C 38.5°F3.6°C 76% 3.5 mph E5.6 kmh E 6.0 mph9.7 kmh 30.28 in1025.4 mb - 0.00 in0.0 mm 0.00 in0.0 mm
08:30 AM 44.9°F7.2°C 38.4°F3.6°C 78% 2.1 mph E3.4 kmh E 4.0 mph6.4 kmh 30.27 in1025.1 mb - 0.00 in0.0 mm 0.00 in0.0 mm
08:20 AM 44.4°F6.9°C 38.3°F3.5°C 79% 3.9 mph ENE6.3 kmh ENE 6.0 mph9.7 kmh 30.27 in1025.1 mb - 0.00 in0.0 mm 0.00 in0.0 mm
08:10 AM 43.7°F6.5°C 37.6°F3.1°C 79% 6.4 mph E10.3 kmh E 10.0 mph16.1 kmh 30.27 in1025.1 mb - 0.00 in0.0 mm 0.00 in0.0 mm
08:00 AM 42.9°F6.1°C 37.1°F2.8°C 80% 5.8 mph NE9.3 kmh NE 8.0 mph12.9 kmh 30.27 in1025.1 mb - 0.00 in0.0 mm 0.00 in0.0 mm
07:50 AM 42.8°F6.0°C 37.1°F2.8°C 80% 5.2 mph NE8.4 kmh NE 8.0 mph12.9 kmh 30.27 in1025.1 mb - 0.00 in0.0 mm 0.00 in0.0 mm
07:40 AM 42.5°F5.8°C 37.0°F2.8°C 81% 3.2 mph NE5.1 kmh NE 4.0 mph6.4 kmh 30.27 in1025.1 mb - 0.00 in0.0 mm 0.00 in0.0 mm
07:30 AM 42.0°F5.6°C 36.6°F2.6°C 81% 2.9 mph E4.7 kmh E 4.0 mph6.4 kmh 30.27 in1025.1 mb - 0.00 in0.0 mm 0.00 in0.0 mm
07:20 AM 41.3°F5.2°C 36.5°F2.5°C 83% 3.3 mph E5.3 kmh E 4.0 mph6.4 kmh 30.27 in1025.1 mb - 0.00 in0.0 mm 0.00 in0.0 mm
07:10 AM 40.8°F4.9°C 36.0°F2.2°C 83% 3.4 mph E5.5 kmh E 7.0 mph11.3 kmh 30.26 in1024.7 mb - 0.00 in0.0 mm 0.00 in0.0 mm
07:00 AM 40.3°F4.6°C 35.8°F2.1°C 84% 2.4 mph E3.9 kmh E 4.0 mph6.4 kmh 30.26 in1024.7 mb - 0.00 in0.0 mm 0.00 in0.0 mm
06:50 AM 39.7°F4.3°C 35.3°F1.8°C 84% 2.8 mph NE4.5 kmh NE 5.0 mph8.0 kmh 30.25 in1024.4 mb - 0.00 in0.0 mm 0.00 in0.0 mm
06:40 AM 39.3°F4.1°C 35.2°F1.8°C 85% 3.4 mph E5.5 kmh E 5.0 mph8.0 kmh 30.25 in1024.4 mb - 0.00 in0.0 mm 0.00 in0.0 mm
06:30 AM 38.8°F3.8°C 35.0°F1.7°C 86% 2.9 mph ENE4.7 kmh ENE 4.0 mph6.4 kmh 30.25 in1024.4 mb - 0.00 in0.0 mm 0.00 in0.0 mm
06:20 AM 38.2°F3.4°C 34.6°F1.4°C 87% 2.3 mph E3.7 kmh E 4.0 mph6.4 kmh 30.24 in1024.0 mb - 0.00 in0.0 mm 0.00 in0.0 mm
06:10 AM 37.5°F3.1°C 34.3°F1.3°C 88% 0.9 mph E1.4 kmh E 2.0 mph3.2 kmh 30.24 in1024.0 mb - 0.00 in0.0 mm 0.00 in0.0 mm
06:00 AM 37.2°F2.9°C 34.0°F1.1°C 88% 0.7 mph ENE1.1 kmh ENE 1.0 mph1.6 kmh 30.23 in1023.7 mb - 0.00 in0.0 mm 0.00 in0.0 mm
05:50 AM 37.0°F2.8°C 33.8°F1.0°C 88% 0.9 mph E1.4 kmh E 1.0 mph1.6 kmh 30.23 in1023.7 mb - 0.00 in0.0 mm 0.00 in0.0 mm
05:40 AM 36.8°F2.7°C 33.6°F0.9°C 88% 0.7 mph NE1.1 kmh NE 1.0 mph1.6 kmh 30.23 in1023.7 mb - 0.00 in0.0 mm 0.00 in0.0 mm
05:30 AM 36.5°F2.5°C 33.6°F0.9°C 89% 1.4 mph ENE2.3 kmh ENE 2.0 mph3.2 kmh 30.23 in1023.7 mb - 0.00 in0.0 mm 0.00 in0.0 mm
05:20 AM 35.9°F2.2°C 32.7°F0.4°C 88% 0.7 mph ESE1.1 kmh ESE 1.0 mph1.6 kmh 30.23 in1023.7 mb - 0.00 in0.0 mm 0.00 in0.0 mm
05:10 AM 36.4°F2.4°C 32.9°F0.5°C 87% 0.2 mph ESE0.3 kmh ESE 1.0 mph1.6 kmh 30.23 in1023.7 mb - 0.00 in0.0 mm 0.00 in0.0 mm
05:00 AM 36.5°F2.5°C 33.3°F0.7°C 88% Calm Calm -- 30.23 in1023.7 mb - 0.00 in0.0 mm 0.00 in0.0 mm
04:50 AM 36.7°F2.6°C 33.2°F0.7°C 87% Calm Calm -- 30.23 in1023.7 mb - 0.00 in0.0 mm 0.00 in0.0 mm
04:40 AM 37.1°F2.8°C 33.0°F0.6°C 85% Calm Calm -- 30.22 in1023.4 mb - 0.00 in0.0 mm 0.00 in0.0 mm
04:30 AM 37.7°F3.2°C 33.6°F0.9°C 85% Calm Calm -- 30.22 in1023.4 mb - 0.00 in0.0 mm 0.00 in0.0 mm
04:20 AM 37.6°F3.1°C 33.2°F0.7°C 84% 0.6 mph ESE1.0 kmh ESE 1.0 mph1.6 kmh 30.22 in1023.4 mb - 0.00 in0.0 mm 0.00 in0.0 mm
04:10 AM 38.3°F3.5°C 33.9°F1.1°C 84% Calm Calm -- 30.22 in1023.4 mb - 0.00 in0.0 mm 0.00 in0.0 mm
04:00 AM 38.7°F3.7°C 34.0°F1.1°C 83% 0.1 mph ESE0.2 kmh ESE -- 30.22 in1023.4 mb - 0.00 in0.0 mm 0.00 in0.0 mm
03:50 AM 39.3°F4.1°C 34.3°F1.3°C 82% Calm Calm -- 30.22 in1023.4 mb - 0.00 in0.0 mm 0.00 in0.0 mm
03:40 AM 39.9°F4.4°C 34.5°F1.4°C 81% Calm Calm -- 30.22 in1023.4 mb - 0.00 in0.0 mm 0.00 in0.0 mm
03:30 AM 40.1°F4.5°C 34.7°F1.5°C 81% 0.6 mph E1.0 kmh E 2.0 mph3.2 kmh 30.22 in1023.4 mb - 0.00 in0.0 mm 0.00 in0.0 mm
03:20 AM 40.2°F4.6°C 34.8°F1.6°C 81% 1.5 mph E2.4 kmh E 3.0 mph4.8 kmh 30.22 in1023.4 mb - 0.00 in0.0 mm 0.00 in0.0 mm
03:10 AM 40.3°F4.6°C 34.6°F1.4°C 80% 1.3 mph ENE2.1 kmh ENE 3.0 mph4.8 kmh 30.22 in1023.4 mb - 0.00 in0.0 mm 0.00 in0.0 mm
03:00 AM 40.4°F4.7°C 34.7°F1.5°C 80% 2.2 mph ENE3.5 kmh ENE 3.0 mph4.8 kmh 30.22 in1023.4 mb - 0.00 in0.0 mm 0.00 in0.0 mm
02:50 AM 40.6°F4.8°C 34.9°F1.6°C 80% 0.9 mph E1.4 kmh E 1.0 mph1.6 kmh 30.22 in1023.4 mb - 0.00 in0.0 mm 0.00 in0.0 mm
02:40 AM 40.9°F4.9°C 34.9°F1.6°C 79% 0.4 mph E0.6 kmh E 1.0 mph1.6 kmh 30.22 in1023.4 mb - 0.00 in0.0 mm 0.00 in0.0 mm
02:30 AM 41.1°F5.1°C 35.1°F1.7°C 79% 0.3 mph E0.5 kmh E 2.0 mph3.2 kmh 30.21 in1023.0 mb - 0.00 in0.0 mm 0.00 in0.0 mm
02:20 AM 41.4°F5.2°C 35.1°F1.7°C 78% 1.5 mph E2.4 kmh E 2.0 mph3.2 kmh 30.21 in1023.0 mb - 0.00 in0.0 mm 0.00 in0.0 mm
02:10 AM 41.7°F5.4°C 35.3°F1.8°C 78% 2.2 mph E3.5 kmh E 3.0 mph4.8 kmh 30.21 in1023.0 mb - 0.00 in0.0 mm 0.00 in0.0 mm
02:00 AM 41.9°F5.5°C 35.2°F1.8°C 77% 2.4 mph E3.9 kmh E 4.0 mph6.4 kmh 30.21 in1023.0 mb - 0.00 in0.0 mm 0.00 in0.0 mm
01:50 AM 42.2°F5.7°C 35.5°F1.9°C 77% 3.4 mph E5.5 kmh E 5.0 mph8.0 kmh 30.21 in1023.0 mb - 0.00 in0.0 mm 0.00 in0.0 mm
01:40 AM 42.4°F5.8°C 35.4°F1.9°C 76% 2.7 mph NE4.3 kmh NE 5.0 mph8.0 kmh 30.21 in1023.0 mb - 0.00 in0.0 mm 0.00 in0.0 mm
01:30 AM 42.7°F5.9°C 35.7°F2.1°C 76% 3.5 mph E5.6 kmh E 4.0 mph6.4 kmh 30.21 in1023.0 mb - 0.00 in0.0 mm 0.00 in0.0 mm
01:20 AM 42.7°F5.9°C 35.7°F2.1°C 76% 4.7 mph NNE7.6 kmh NNE 7.0 mph11.3 kmh 30.21 in1023.0 mb - 0.00 in0.0 mm 0.00 in0.0 mm
01:10 AM 42.9°F6.1°C 35.9°F2.2°C 76% 2.8 mph E4.5 kmh E 4.0 mph6.4 kmh 30.21 in1023.0 mb - 0.00 in0.0 mm 0.00 in0.0 mm
01:00 AM 43.0°F6.1°C 35.6°F2.0°C 75% 4.0 mph E6.4 kmh E 5.0 mph8.0 kmh 30.20 in1022.7 mb - 0.00 in0.0 mm 0.00 in0.0 mm
12:50 AM 43.2°F6.2°C 35.8°F2.1°C 75% 3.9 mph NNE6.3 kmh NNE 6.0 mph9.7 kmh 30.20 in1022.7 mb - 0.00 in0.0 mm 0.00 in0.0 mm
12:40 AM 43.4°F6.3°C 35.7°F2.1°C 74% 1.7 mph NE2.7 kmh NE 3.0 mph4.8 kmh 30.20 in1022.7 mb - 0.00 in0.0 mm 0.00 in0.0 mm
12:30 AM 43.6°F6.4°C 35.9°F2.2°C 74% 3.9 mph E6.3 kmh E 6.0 mph9.7 kmh 30.20 in1022.7 mb - 0.00 in0.0 mm 0.00 in0.0 mm
12:20 AM 43.8°F6.6°C 35.7°F2.1°C 73% 2.5 mph ENE4.0 kmh ENE 6.0 mph9.7 kmh 30.19 in1022.4 mb - 0.00 in0.0 mm 0.00 in0.0 mm
12:10 AM 44.0°F6.7°C 35.9°F2.2°C 73% 3.0 mph E4.8 kmh E 5.0 mph8.0 kmh 30.19 in1022.4 mb - 0.00 in0.0 mm 0.00 in0.0 mm
12:00 AM 44.3°F6.8°C 35.8°F2.1°C 72% 2.9 mph E4.7 kmh E 5.0 mph8.0 kmh 30.18 in1022.0 mb - 0.00 in0.0 mm 0.00 in0.0 mm